Aviation Digital Data Service (ADDS)

Output produced by METARs form (2307 UTC 18 December 2018)
found at http://aviationweather.gov/metar/data/
 
EGLL 182250Z AUTO 22008KT 9999 BKN037 07/06 Q1003
TAF EGLL 181700Z 1818/1924 17014KT 9999 BKN018 
     TEMPO 1818/1822 16018G28KT 6000 RA BKN012 
     PROB30 
     TEMPO 1818/1822 3500 +RA BKN008 
     BECMG 1820/1823 23008KT SCT030 
     TEMPO 1901/1910 7000 SHRA 
     PROB30 
     TEMPO 1903/1909 4000 +SHRA BKN014CB 
     PROB40 
     TEMPO 1914/1922 7000 SHRA